createdAt,value
2017-11-17T00:00:31.565Z,20.93
2017-11-17T00:02:57.353Z,20.96
2017-11-17T00:05:23.137Z,20.97
2017-11-17T00:07:48.921Z,20.95
2017-11-17T00:10:14.761Z,21.03
2017-11-17T00:12:40.541Z,20.99
2017-11-17T00:15:06.314Z,20.90
2017-11-17T00:17:32.109Z,20.95
2017-11-17T00:19:57.897Z,21.07
2017-11-17T00:22:23.679Z,21.07
2017-11-17T00:24:49.463Z,21.05
2017-11-17T00:27:15.273Z,20.98
2017-11-17T00:29:41.046Z,21.06
2017-11-17T00:32:06.829Z,21.13
2017-11-17T00:34:32.602Z,21.18
2017-11-17T00:36:58.376Z,21.04
2017-11-17T00:39:24.157Z,21.08
2017-11-17T00:41:49.933Z,21.14
2017-11-17T00:44:15.715Z,21.07
2017-11-17T00:46:41.492Z,21.11
2017-11-17T00:49:07.268Z,21.16
2017-11-17T00:51:33.045Z,21.14
2017-11-17T00:53:58.821Z,21.11
2017-11-17T00:56:24.601Z,21.07
2017-11-17T00:58:50.374Z,21.07
2017-11-17T01:01:16.152Z,21.07
2017-11-17T01:03:41.930Z,21.09
2017-11-17T01:06:07.727Z,21.12
2017-11-17T01:08:33.513Z,21.05
2017-11-17T01:10:59.294Z,21.10
2017-11-17T01:13:25.075Z,20.97
2017-11-17T01:15:50.853Z,21.05
2017-11-17T01:18:16.635Z,20.98
2017-11-17T01:20:42.421Z,21.10
2017-11-17T01:23:08.198Z,21.09
2017-11-17T01:25:34.009Z,21.09
2017-11-17T01:27:59.789Z,21.10
2017-11-17T01:30:25.567Z,21.09
2017-11-17T01:32:51.344Z,21.01
2017-11-17T01:35:17.121Z,20.97
2017-11-17T01:37:42.904Z,21.06
2017-11-17T01:40:08.685Z,21.10
2017-11-17T01:42:34.469Z,21.07
2017-11-17T01:45:00.250Z,21.09
2017-11-17T01:47:26.021Z,21.11
2017-11-17T01:49:51.830Z,20.99
2017-11-17T01:52:17.605Z,21.04
2017-11-17T01:54:43.387Z,21.06
2017-11-17T01:57:09.189Z,21.04
2017-11-17T01:59:35.000Z,21.08
2017-11-17T02:02:00.793Z,21.08
2017-11-17T02:04:26.582Z,21.08
2017-11-17T02:06:52.357Z,21.01
2017-11-17T02:09:18.136Z,20.99
2017-11-17T02:11:43.911Z,21.00
2017-11-17T02:14:09.716Z,21.02
2017-11-17T02:16:35.492Z,21.01
2017-11-17T02:19:01.274Z,21.05
2017-11-17T02:21:27.051Z,21.10
2017-11-17T02:23:52.872Z,21.00
2017-11-17T02:26:18.649Z,21.00
2017-11-17T02:28:44.425Z,20.94
2017-11-17T02:31:10.217Z,21.00
2017-11-17T02:33:36.038Z,20.99
2017-11-17T02:36:01.857Z,21.03
2017-11-17T02:38:27.641Z,21.03
2017-11-17T02:40:53.457Z,20.97
2017-11-17T02:43:19.245Z,20.96
2017-11-17T02:45:45.036Z,20.99
2017-11-17T02:48:10.813Z,21.07
2017-11-17T02:50:36.605Z,21.10
2017-11-17T02:53:02.419Z,21.03
2017-11-17T02:55:28.237Z,21.03
2017-11-17T02:57:54.062Z,21.01
2017-11-17T03:00:19.859Z,21.08
2017-11-17T03:02:45.669Z,21.11
2017-11-17T03:05:11.476Z,21.07
2017-11-17T03:07:37.253Z,21.07
2017-11-17T03:10:03.045Z,21.10
2017-11-17T03:12:28.816Z,21.09
2017-11-17T03:14:54.590Z,21.07
2017-11-17T03:17:20.369Z,21.12
2017-11-17T03:19:46.151Z,21.10
2017-11-17T03:22:11.965Z,21.09
2017-11-17T03:24:37.741Z,21.12
2017-11-17T03:27:03.565Z,21.15
2017-11-17T03:29:29.404Z,21.15
2017-11-17T03:31:55.181Z,21.06
2017-11-17T03:34:20.965Z,21.13
2017-11-17T03:36:46.745Z,21.12
2017-11-17T03:39:12.521Z,21.09
2017-11-17T03:41:38.304Z,21.10
2017-11-17T03:44:04.082Z,21.09
2017-11-17T03:46:29.862Z,21.11
2017-11-17T03:48:55.637Z,21.09
2017-11-17T03:51:21.415Z,21.12
2017-11-17T03:53:47.198Z,21.12
2017-11-17T03:56:13.024Z,21.09
2017-11-17T03:58:38.797Z,21.07
2017-11-17T04:01:04.582Z,21.08
2017-11-17T04:03:30.353Z,21.13
2017-11-17T04:05:56.170Z,21.12
2017-11-17T04:08:21.954Z,21.12
2017-11-17T04:10:47.725Z,21.07
2017-11-17T04:13:13.534Z,21.09
2017-11-17T04:15:39.314Z,21.04
2017-11-17T04:18:05.092Z,21.11
2017-11-17T04:20:30.878Z,21.13
2017-11-17T04:22:56.702Z,21.10
2017-11-17T04:25:22.485Z,21.14
2017-11-17T04:27:48.282Z,21.11
2017-11-17T04:30:14.065Z,21.13
2017-11-17T04:32:39.890Z,21.07
2017-11-17T04:35:05.661Z,21.06
2017-11-17T04:37:31.434Z,21.09
2017-11-17T04:39:57.214Z,21.11
2017-11-17T04:42:22.994Z,21.12
2017-11-17T04:44:48.777Z,21.10
2017-11-17T04:47:14.573Z,21.10
2017-11-17T04:49:47.381Z,21.05
2017-11-17T04:52:13.157Z,20.93
2017-11-17T04:54:38.934Z,20.97
2017-11-17T04:57:04.713Z,21.03
2017-11-17T04:59:30.489Z,21.06
2017-11-17T05:01:56.273Z,21.06
2017-11-17T05:04:22.052Z,21.06
2017-11-17T05:06:47.837Z,21.02
2017-11-17T05:09:13.621Z,20.94
2017-11-17T05:11:39.400Z,21.03
2017-11-17T05:14:05.178Z,21.04
2017-11-17T05:16:30.961Z,21.05
2017-11-17T05:18:56.745Z,20.99
2017-11-17T05:21:22.524Z,21.06
2017-11-17T05:23:48.305Z,21.06
2017-11-17T05:26:14.082Z,21.14
2017-11-17T05:28:39.874Z,21.13
2017-11-17T05:31:05.653Z,21.06
2017-11-17T05:33:31.463Z,21.03
2017-11-17T05:35:57.276Z,21.03
2017-11-17T05:38:23.064Z,21.10
2017-11-17T05:40:48.885Z,21.08
2017-11-17T05:43:14.674Z,21.13
2017-11-17T05:45:40.460Z,21.06
2017-11-17T05:48:06.246Z,21.15
2017-11-17T05:50:32.037Z,21.13
2017-11-17T05:52:57.822Z,21.11
2017-11-17T05:55:23.617Z,21.12
2017-11-17T05:57:49.408Z,21.14
2017-11-17T06:00:15.185Z,21.16
2017-11-17T06:02:40.966Z,21.17
2017-11-17T06:05:06.823Z,21.11
2017-11-17T06:07:32.610Z,21.11
2017-11-17T06:09:58.430Z,21.16
2017-11-17T06:12:24.237Z,21.12
2017-11-17T06:14:50.030Z,21.15
2017-11-17T06:17:15.817Z,21.16
2017-11-17T06:19:41.607Z,21.19
2017-11-17T06:22:07.420Z,21.20
2017-11-17T06:24:33.211Z,21.11
2017-11-17T06:26:59.045Z,21.16
2017-11-17T06:29:24.830Z,21.12
2017-11-17T06:31:50.641Z,21.10
2017-11-17T06:34:16.445Z,21.13
2017-11-17T06:36:42.249Z,21.13
2017-11-17T06:39:08.029Z,21.15
2017-11-17T06:41:33.813Z,21.12
2017-11-17T06:43:59.645Z,21.15
2017-11-17T06:46:25.443Z,21.12
2017-11-17T06:48:51.317Z,21.19
2017-11-17T06:51:17.099Z,21.15
2017-11-17T06:53:42.909Z,21.14
2017-11-17T06:56:08.738Z,21.14
2017-11-17T06:58:34.533Z,21.13
2017-11-17T07:01:00.537Z,21.22
2017-11-17T07:03:26.315Z,21.19
2017-11-17T07:05:52.094Z,21.18
2017-11-17T07:08:17.876Z,21.23
2017-11-17T07:10:43.726Z,21.20
2017-11-17T07:13:09.548Z,21.17
2017-11-17T07:15:35.357Z,21.36
2017-11-17T07:18:01.189Z,21.28
2017-11-17T07:20:26.974Z,20.77
2017-11-17T07:22:52.752Z,20.39
2017-11-17T07:25:18.534Z,20.20
2017-11-17T07:27:44.353Z,20.46
2017-11-17T07:30:10.135Z,20.82
2017-11-17T07:32:35.909Z,20.92
2017-11-17T07:35:01.701Z,21.05
2017-11-17T07:37:27.481Z,21.02
2017-11-17T07:39:53.285Z,21.01
2017-11-17T07:42:19.073Z,21.12
2017-11-17T07:44:44.883Z,21.08
2017-11-17T07:47:10.669Z,21.03
2017-11-17T07:49:36.499Z,21.07
2017-11-17T07:52:02.282Z,20.99
2017-11-17T07:54:28.061Z,21.07
2017-11-17T07:56:53.850Z,21.08
2017-11-17T07:59:19.631Z,20.35
2017-11-17T08:01:45.418Z,19.87
2017-11-17T08:04:11.334Z,20.09
2017-11-17T08:06:37.113Z,19.89
2017-11-17T08:09:02.918Z,20.01
2017-11-17T08:11:28.737Z,19.97
2017-11-17T08:13:54.529Z,19.83
2017-11-17T08:16:20.323Z,19.75
2017-11-17T08:18:46.112Z,20.13
2017-11-17T08:21:11.915Z,20.43
2017-11-17T08:23:37.697Z,20.35
2017-11-17T08:26:03.513Z,20.54
2017-11-17T08:28:29.306Z,20.55
2017-11-17T08:30:55.125Z,20.73
2017-11-17T08:33:20.906Z,20.78
2017-11-17T08:35:46.717Z,20.70
2017-11-17T08:38:12.504Z,20.85
2017-11-17T08:40:38.335Z,20.90
2017-11-17T08:43:04.113Z,20.86
2017-11-17T08:45:29.911Z,20.94
2017-11-17T08:47:55.724Z,20.52
2017-11-17T08:50:21.506Z,20.60
2017-11-17T08:52:47.284Z,20.24
2017-11-17T08:55:13.085Z,20.34
2017-11-17T08:57:38.929Z,20.29
2017-11-17T09:00:04.725Z,20.01
2017-11-17T09:02:30.502Z,19.89
2017-11-17T09:04:56.284Z,19.76
2017-11-17T09:07:22.073Z,19.84
2017-11-17T09:09:47.854Z,19.87
2017-11-17T09:12:13.650Z,19.91
2017-11-17T09:14:39.469Z,19.82
2017-11-17T09:17:05.254Z,19.90
2017-11-17T09:19:31.072Z,19.76
2017-11-17T09:21:56.895Z,19.72
2017-11-17T09:24:22.678Z,19.87
2017-11-17T09:26:48.689Z,19.97
2017-11-17T09:29:14.475Z,20.14
2017-11-17T09:31:40.416Z,20.22
2017-11-17T09:34:06.201Z,19.99
2017-11-17T09:36:31.994Z,20.04
2017-11-17T09:38:57.865Z,20.02
2017-11-17T09:41:23.658Z,19.89
2017-11-17T09:43:49.630Z,19.97
2017-11-17T09:46:15.419Z,20.37
2017-11-17T09:48:41.217Z,20.18
2017-11-17T09:51:06.993Z,20.19
2017-11-17T09:53:32.811Z,19.87
2017-11-17T09:55:58.694Z,20.12
2017-11-17T09:58:24.642Z,20.16
2017-11-17T10:00:50.526Z,20.37
2017-11-17T10:03:16.310Z,20.50
2017-11-17T10:05:42.269Z,20.03
2017-11-17T10:08:08.226Z,19.99
2017-11-17T10:10:34.046Z,20.15
2017-11-17T10:12:59.829Z,20.38
2017-11-17T10:15:25.642Z,20.36
2017-11-17T10:17:51.484Z,20.13
2017-11-17T10:20:19.206Z,20.35
2017-11-17T10:22:44.986Z,20.17
2017-11-17T10:25:11.867Z,20.09
2017-11-17T10:27:37.696Z,20.30
2017-11-17T10:30:03.494Z,20.48
2017-11-17T10:32:29.460Z,19.87
2017-11-17T10:34:55.253Z,20.26
2017-11-17T10:37:21.032Z,20.35
2017-11-17T10:39:46.937Z,20.56
2017-11-17T10:42:12.738Z,20.68
2017-11-17T10:44:38.575Z,20.73
2017-11-17T10:47:04.353Z,20.80
2017-11-17T10:49:30.179Z,20.78
2017-11-17T10:51:55.977Z,20.90
2017-11-17T10:54:21.793Z,20.95
2017-11-17T10:56:47.573Z,20.97
2017-11-17T10:59:17.444Z,20.86
2017-11-17T11:01:43.281Z,20.87
2017-11-17T11:04:09.065Z,20.97
2017-11-17T11:06:34.843Z,20.91
2017-11-17T11:09:00.637Z,20.96
2017-11-17T11:11:32.682Z,20.94
2017-11-17T11:13:58.462Z,20.92
2017-11-17T11:16:24.246Z,20.89
2017-11-17T11:18:50.046Z,20.93
2017-11-17T11:21:15.899Z,20.94
2017-11-17T11:23:41.696Z,21.01
2017-11-17T11:26:07.546Z,20.93
2017-11-17T11:28:33.337Z,20.89
2017-11-17T11:30:59.129Z,20.95
2017-11-17T11:33:24.966Z,20.88
2017-11-17T11:35:50.742Z,20.91
2017-11-17T11:38:16.519Z,20.93
2017-11-17T11:40:42.317Z,20.87
2017-11-17T11:43:08.102Z,20.94
2017-11-17T11:45:33.998Z,20.90
2017-11-17T11:47:59.799Z,20.93
2017-11-17T11:50:25.593Z,20.94
2017-11-17T11:52:51.381Z,20.91
2017-11-17T11:55:17.161Z,20.97
2017-11-17T11:57:42.936Z,20.99
2017-11-17T12:00:08.759Z,21.02
2017-11-17T12:02:34.557Z,20.95
2017-11-17T12:35:20.060Z,20.15
2017-11-17T12:37:45.876Z,20.20
2017-11-17T12:40:11.653Z,20.19
2017-11-17T12:42:37.469Z,19.86
2017-11-17T12:45:03.279Z,19.96
2017-11-17T12:47:29.065Z,19.92
2017-11-17T12:49:54.840Z,19.75
2017-11-17T12:52:21.455Z,20.15
2017-11-17T12:54:47.401Z,19.58
2017-11-17T12:57:13.181Z,19.96
2017-11-17T12:59:39.003Z,19.85
2017-11-17T13:02:04.825Z,19.73
2017-11-17T13:04:30.611Z,19.97
2017-11-17T13:06:56.549Z,19.92
2017-11-17T13:09:22.324Z,19.97
2017-11-17T13:11:48.114Z,19.70
2017-11-17T13:14:13.901Z,20.16
2017-11-17T13:16:39.777Z,20.27
2017-11-17T13:19:05.554Z,20.40
2017-11-17T13:21:31.361Z,19.79
2017-11-17T13:23:57.182Z,20.13
2017-11-17T13:26:22.968Z,20.13
2017-11-17T13:28:48.761Z,20.43
2017-11-17T13:31:14.542Z,20.70
2017-11-17T13:33:40.319Z,20.81
2017-11-17T13:36:06.158Z,20.80
2017-11-17T13:38:31.937Z,20.94
2017-11-17T13:40:57.734Z,20.96
2017-11-17T13:43:23.514Z,21.00
2017-11-17T13:45:49.310Z,21.09
2017-11-17T13:48:15.088Z,21.11
2017-11-17T13:50:40.921Z,21.09
2017-11-17T13:53:06.702Z,21.02
2017-11-17T13:55:32.618Z,21.07
2017-11-17T13:57:58.408Z,21.11
2017-11-17T14:00:24.253Z,21.12
2017-11-17T14:02:50.071Z,21.16
2017-11-17T14:05:15.966Z,21.16
2017-11-17T14:07:41.820Z,21.06
2017-11-17T14:10:07.614Z,21.04
2017-11-17T14:12:33.389Z,21.07
2017-11-17T14:14:59.205Z,21.13
2017-11-17T14:17:24.979Z,21.16
2017-11-17T14:19:50.761Z,21.19
2017-11-17T14:22:16.709Z,21.22
2017-11-17T14:24:42.490Z,21.21
2017-11-17T14:27:08.309Z,21.21
2017-11-17T14:29:34.097Z,21.15
2017-11-17T14:31:59.889Z,21.11
2017-11-17T14:34:25.681Z,21.13
2017-11-17T14:36:51.459Z,21.17
2017-11-17T14:39:17.349Z,21.13
2017-11-17T14:41:43.121Z,21.12
2017-11-17T14:44:08.905Z,21.15
2017-11-17T14:46:34.764Z,21.16
2017-11-17T14:49:00.641Z,21.06
2017-11-17T14:51:26.455Z,21.05
2017-11-17T14:53:53.753Z,21.06
2017-11-17T14:56:19.598Z,21.08
2017-11-17T14:58:46.450Z,21.07
2017-11-17T15:01:12.247Z,21.06
2017-11-17T15:03:38.109Z,21.07
2017-11-17T15:06:04.054Z,21.09
2017-11-17T15:08:29.843Z,21.08
2017-11-17T15:10:55.658Z,21.02
2017-11-17T15:13:21.496Z,20.97
2017-11-17T15:15:47.286Z,21.08
2017-11-17T15:18:13.091Z,21.05
2017-11-17T15:20:38.921Z,21.06
2017-11-17T15:23:04.768Z,21.05
2017-11-17T15:25:30.582Z,21.07
2017-11-17T15:27:56.363Z,21.04
2017-11-17T15:30:22.189Z,21.04
2017-11-17T15:32:47.980Z,20.99
2017-11-17T15:35:13.802Z,20.99
2017-11-17T15:37:39.857Z,21.02
2017-11-17T15:40:05.653Z,20.99
2017-11-17T15:42:31.441Z,20.96
2017-11-17T15:44:57.234Z,20.82
2017-11-17T15:47:23.045Z,20.91
2017-11-17T15:49:48.834Z,20.95
2017-11-17T15:52:14.810Z,21.01
2017-11-17T15:54:40.639Z,21.11
2017-11-17T15:57:06.443Z,21.06
2017-11-17T15:59:32.234Z,21.09
2017-11-17T16:01:58.025Z,21.09
2017-11-17T16:04:23.837Z,21.10
2017-11-17T16:06:49.625Z,21.05
2017-11-17T16:09:15.560Z,21.01
2017-11-17T16:11:41.349Z,21.02
2017-11-17T16:14:07.176Z,21.03
2017-11-17T16:16:32.964Z,21.09
2017-11-17T16:18:58.862Z,21.06
2017-11-17T16:21:24.647Z,21.05
2017-11-17T16:23:50.580Z,20.96
2017-11-17T16:26:16.382Z,20.94
2017-11-17T16:28:42.187Z,20.93
2017-11-17T16:31:07.984Z,20.93
2017-11-17T16:33:33.886Z,20.94
2017-11-17T16:35:59.719Z,20.97
2017-11-17T16:38:25.552Z,20.95
2017-11-17T16:40:51.334Z,20.88
2017-11-17T16:43:17.135Z,20.86
2017-11-17T16:45:42.987Z,20.95
2017-11-17T16:48:08.877Z,20.96
2017-11-17T16:50:34.888Z,20.89
2017-11-17T16:53:00.669Z,20.93
2017-11-17T16:55:26.624Z,20.78
2017-11-17T16:57:52.420Z,20.85
2017-11-17T17:00:18.719Z,20.79
2017-11-17T17:02:44.538Z,20.79
2017-11-17T17:05:11.165Z,20.81
2017-11-17T17:07:36.993Z,20.94
2017-11-17T17:10:02.784Z,20.93
2017-11-17T17:12:28.577Z,20.94
2017-11-17T17:14:54.378Z,20.95
2017-11-17T17:17:20.175Z,20.99
2017-11-17T17:19:45.952Z,20.88
2017-11-17T17:22:11.778Z,20.87
2017-11-17T17:24:37.567Z,20.87
2017-11-17T17:27:03.436Z,20.90
2017-11-17T17:29:29.231Z,20.85
2017-11-17T17:31:55.429Z,20.88
2017-11-17T17:34:21.210Z,20.89
2017-11-17T17:36:46.997Z,20.99
2017-11-17T17:39:12.781Z,20.86
2017-11-17T17:41:38.633Z,20.91
2017-11-17T17:44:04.606Z,20.78
2017-11-17T17:46:30.485Z,20.78
2017-11-17T17:48:56.265Z,20.85
2017-11-17T17:51:22.056Z,20.76
2017-11-17T17:53:47.941Z,20.75
2017-11-17T17:56:13.725Z,20.81
2017-11-17T17:58:39.510Z,20.85
2017-11-17T18:01:05.353Z,20.83
2017-11-17T18:03:31.153Z,20.81
2017-11-17T18:05:56.939Z,20.78
2017-11-17T18:08:22.728Z,20.86
2017-11-17T18:10:48.721Z,20.77
2017-11-17T18:13:14.502Z,20.78
2017-11-17T18:15:40.434Z,20.82
2017-11-17T18:18:06.218Z,20.80
2017-11-17T18:20:32.065Z,20.77
2017-11-17T18:22:58.972Z,20.77
2017-11-17T18:25:25.436Z,20.69
2017-11-17T18:27:51.366Z,20.67
2017-11-17T18:30:19.890Z,20.72
2017-11-17T18:32:45.709Z,20.77
2017-11-17T18:35:11.605Z,20.75
2017-11-17T18:37:38.370Z,20.75
2017-11-17T18:40:04.173Z,20.77
2017-11-17T18:42:30.086Z,20.71
2017-11-17T18:44:55.869Z,20.72
2017-11-17T18:47:21.780Z,20.65
2017-11-17T18:49:47.594Z,20.62
2017-11-17T18:52:13.378Z,20.70
2017-11-17T18:54:39.245Z,20.58
2017-11-17T18:57:05.098Z,20.67
2017-11-17T18:59:30.918Z,20.64
2017-11-17T19:01:56.795Z,20.75
2017-11-17T19:04:22.533Z,20.75
2017-11-17T19:06:48.600Z,20.78
2017-11-17T19:09:14.402Z,20.68
2017-11-17T19:11:40.193Z,20.71
2017-11-17T19:14:06.121Z,20.73
2017-11-17T19:16:32.009Z,20.67
2017-11-17T19:18:57.866Z,20.69
2017-11-17T19:21:23.670Z,20.72
2017-11-17T19:23:49.466Z,20.76
2017-11-17T19:26:15.289Z,20.72
2017-11-17T19:28:41.086Z,20.74
2017-11-17T19:31:06.898Z,20.67
2017-11-17T19:33:32.731Z,20.67
2017-11-17T19:35:58.699Z,20.70
2017-11-17T19:38:24.509Z,20.70
2017-11-17T19:40:50.475Z,20.66
2017-11-17T19:43:16.270Z,20.64
2017-11-17T19:45:42.054Z,20.71
2017-11-17T19:48:07.846Z,20.69
2017-11-17T19:50:33.776Z,20.62
2017-11-17T19:52:59.611Z,20.69
2017-11-17T19:55:25.406Z,20.61
2017-11-17T19:57:51.202Z,20.63
2017-11-17T20:00:19.993Z,20.63
2017-11-17T20:02:45.816Z,20.69
2017-11-17T20:05:11.631Z,20.65
2017-11-17T20:07:37.428Z,20.64
2017-11-17T20:10:03.213Z,20.66
2017-11-17T20:12:29.192Z,20.51
2017-11-17T20:14:54.998Z,20.57
2017-11-17T20:17:20.793Z,20.45
2017-11-17T20:19:46.580Z,20.56
2017-11-17T20:22:12.574Z,20.53
2017-11-17T20:24:38.396Z,20.61
2017-11-17T20:27:04.194Z,20.59
2017-11-17T20:29:29.977Z,20.63
2017-11-17T20:31:55.763Z,20.64
2017-11-17T20:34:21.547Z,20.60
2017-11-17T20:36:47.333Z,20.67
2017-11-17T20:39:13.129Z,20.68
2017-11-17T20:41:38.913Z,20.67
2017-11-17T20:44:04.717Z,20.64
2017-11-17T20:46:30.710Z,20.65
2017-11-17T20:48:56.493Z,20.62
2017-11-17T20:51:22.286Z,20.61
2017-11-17T20:53:48.089Z,20.61
2017-11-17T20:56:13.877Z,20.54
2017-11-17T20:58:40.707Z,20.63
2017-11-17T21:01:06.621Z,20.64
2017-11-17T21:03:32.414Z,20.65
2017-11-17T21:05:58.202Z,20.60
2017-11-17T21:08:23.986Z,20.64
2017-11-17T21:10:49.781Z,20.68
2017-11-17T21:13:15.606Z,20.63
2017-11-17T21:15:41.558Z,20.68
2017-11-17T21:18:07.354Z,20.64
2017-11-17T21:20:33.147Z,20.63
2017-11-17T21:22:58.952Z,20.63
2017-11-17T21:25:24.747Z,20.57
2017-11-17T21:27:51.553Z,20.57
2017-11-17T21:30:17.350Z,20.55
2017-11-17T21:32:43.137Z,20.55
2017-11-17T21:35:08.932Z,20.51
2017-11-17T21:37:34.969Z,20.61
2017-11-17T21:40:00.791Z,20.59
2017-11-17T21:42:26.591Z,20.56
2017-11-17T21:44:52.377Z,20.58
2017-11-17T21:47:18.184Z,20.53
2017-11-17T21:49:44.963Z,20.60
2017-11-17T21:52:10.888Z,20.57
2017-11-17T21:54:36.678Z,20.56
2017-11-17T21:57:02.461Z,20.55
2017-11-17T21:59:28.439Z,20.58
2017-11-17T22:01:54.285Z,20.51
2017-11-17T22:04:20.069Z,20.58
2017-11-17T22:06:45.890Z,20.56
2017-11-17T22:09:11.835Z,20.52
2017-11-17T22:11:41.727Z,20.47
2017-11-17T22:14:07.554Z,20.43
2017-11-17T22:16:33.352Z,20.50
2017-11-17T22:18:59.183Z,20.52
2017-11-17T22:21:24.957Z,20.49
2017-11-17T22:23:50.746Z,20.49
2017-11-17T22:26:16.541Z,20.54
2017-11-17T22:28:42.336Z,20.46
2017-11-17T22:31:08.130Z,20.52
2017-11-17T22:33:33.925Z,20.50
2017-11-17T22:35:59.709Z,20.47
2017-11-17T22:38:25.497Z,20.49
2017-11-17T22:40:51.324Z,20.50
2017-11-17T22:43:17.250Z,20.50
2017-11-17T22:45:43.025Z,20.50
2017-11-17T22:48:08.814Z,20.35
2017-11-17T22:50:34.596Z,20.44
2017-11-17T22:53:00.422Z,20.49
2017-11-17T22:55:26.305Z,20.45
2017-11-17T22:57:52.085Z,20.42
2017-11-17T23:00:19.175Z,20.45
2017-11-17T23:02:44.985Z,20.45
2017-11-17T23:05:10.773Z,20.38
2017-11-17T23:07:36.549Z,20.38
2017-11-17T23:10:02.372Z,20.47
2017-11-17T23:12:28.161Z,20.48
2017-11-17T23:14:53.990Z,20.49
2017-11-17T23:17:19.770Z,20.50
2017-11-17T23:19:45.569Z,20.47
2017-11-17T23:22:11.375Z,20.52
2017-11-17T23:24:37.206Z,20.36
2017-11-17T23:27:03.044Z,20.42
2017-11-17T23:29:28.822Z,20.44
2017-11-17T23:31:54.632Z,20.43
2017-11-17T23:34:20.434Z,20.46
2017-11-17T23:36:46.374Z,20.40
2017-11-17T23:39:12.169Z,20.42
2017-11-17T23:41:37.945Z,20.45
2017-11-17T23:44:03.728Z,20.42
2017-11-17T23:46:29.527Z,20.46
2017-11-17T23:48:55.324Z,20.52
2017-11-17T23:51:21.128Z,20.44
2017-11-17T23:53:46.913Z,20.38
2017-11-17T23:56:12.702Z,20.43
2017-11-17T23:58:38.524Z,20.40
